sensor_id;sensor_type;location;lat;lon;timestamp;temperature;humidity
22442;DHT22;11388;54.456;9.752;2022-12-24T00:02:11;4.10;99.90
22442;DHT22;11388;54.456;9.752;2022-12-24T00:04:36;4.10;99.90
22442;DHT22;11388;54.456;9.752;2022-12-24T00:07:03;4.10;99.90
22442;DHT22;11388;54.456;9.752;2022-12-24T00:09:28;4.20;99.90
22442;DHT22;11388;54.456;9.752;2022-12-24T00:11:54;4.10;99.90
22442;DHT22;11388;54.456;9.752;2022-12-24T00:14:20;4.20;99.90
22442;DHT22;11388;54.456;9.752;2022-12-24T00:16:45;4.10;99.90
22442;DHT22;11388;54.456;9.752;2022-12-24T00:19:11;4.10;99.90
22442;DHT22;11388;54.456;9.752;2022-12-24T00:21:37;4.10;99.90
22442;DHT22;11388;54.456;9.752;2022-12-24T00:24:03;4.10;99.90
22442;DHT22;11388;54.456;9.752;2022-12-24T00:26:30;4.10;99.90
22442;DHT22;11388;54.456;9.752;2022-12-24T00:28:56;4.10;99.90
22442;DHT22;11388;54.456;9.752;2022-12-24T00:31:22;4.10;99.90
22442;DHT22;11388;54.456;9.752;2022-12-24T00:33:48;4.00;99.90
22442;DHT22;11388;54.456;9.752;2022-12-24T00:36:14;4.00;99.90
22442;DHT22;11388;54.456;9.752;2022-12-24T00:38:39;4.00;99.90
22442;DHT22;11388;54.456;9.752;2022-12-24T00:41:07;4.00;99.90
22442;DHT22;11388;54.456;9.752;2022-12-24T00:44:07;4.00;99.90
22442;DHT22;11388;54.456;9.752;2022-12-24T00:46:38;4.00;99.90
22442;DHT22;11388;54.456;9.752;2022-12-24T00:49:05;4.00;99.90
22442;DHT22;11388;54.456;9.752;2022-12-24T00:51:32;3.90;99.90
22442;DHT22;11388;54.456;9.752;2022-12-24T00:53:58;3.90;99.90
22442;DHT22;11388;54.456;9.752;2022-12-24T00:56:24;3.80;99.90
22442;DHT22;11388;54.456;9.752;2022-12-24T00:58:50;3.90;99.90
22442;DHT22;11388;54.456;9.752;2022-12-24T01:01:17;4.00;99.90
22442;DHT22;11388;54.456;9.752;2022-12-24T01:06:50;4.10;99.90
22442;DHT22;11388;54.456;9.752;2022-12-24T01:09:16;4.20;99.90
22442;DHT22;11388;54.456;9.752;2022-12-24T01:11:41;4.20;99.90
22442;DHT22;11388;54.456;9.752;2022-12-24T01:14:07;4.20;99.90
22442;DHT22;11388;54.456;9.752;2022-12-24T01:16:32;4.20;99.90
22442;DHT22;11388;54.456;9.752;2022-12-24T01:18:58;4.20;99.90
22442;DHT22;11388;54.456;9.752;2022-12-24T01:21:24;4.30;99.90
22442;DHT22;11388;54.456;9.752;2022-12-24T01:23:49;4.40;99.90
22442;DHT22;11388;54.456;9.752;2022-12-24T01:26:16;4.20;99.90
22442;DHT22;11388;54.456;9.752;2022-12-24T01:28:42;4.20;99.90
22442;DHT22;11388;54.456;9.752;2022-12-24T01:31:13;4.20;99.90
22442;DHT22;11388;54.456;9.752;2022-12-24T01:33:39;4.30;99.90
22442;DHT22;11388;54.456;9.752;2022-12-24T01:36:05;4.30;99.90
22442;DHT22;11388;54.456;9.752;2022-12-24T01:38:31;4.30;99.90
22442;DHT22;11388;54.456;9.752;2022-12-24T01:40:56;4.30;99.90
22442;DHT22;11388;54.456;9.752;2022-12-24T01:43:40;4.30;99.90
22442;DHT22;11388;54.456;9.752;2022-12-24T01:46:24;4.30;99.90
22442;DHT22;11388;54.456;9.752;2022-12-24T01:49:00;4.20;99.90
22442;DHT22;11388;54.456;9.752;2022-12-24T01:51:38;4.20;99.90
22442;DHT22;11388;54.456;9.752;2022-12-24T01:56:35;4.30;99.90
22442;DHT22;11388;54.456;9.752;2022-12-24T01:59:04;4.30;99.90
22442;DHT22;11388;54.456;9.752;2022-12-24T02:01:31;4.30;99.90
22442;DHT22;11388;54.456;9.752;2022-12-24T02:03:57;4.40;99.90
22442;DHT22;11388;54.456;9.752;2022-12-24T02:06:23;4.40;99.90
22442;DHT22;11388;54.456;9.752;2022-12-24T02:08:49;4.40;99.90
22442;DHT22;11388;54.456;9.752;2022-12-24T02:11:18;4.30;99.90
22442;DHT22;11388;54.456;9.752;2022-12-24T02:34:54;4.60;99.90
22442;DHT22;11388;54.456;9.752;2022-12-24T02:37:54;4.50;99.90
22442;DHT22;11388;54.456;9.752;2022-12-24T02:40:28;4.50;99.90
22442;DHT22;11388;54.456;9.752;2022-12-24T02:43:01;4.50;99.90
22442;DHT22;11388;54.456;9.752;2022-12-24T02:45:30;4.50;99.90
22442;DHT22;11388;54.456;9.752;2022-12-24T02:47:56;4.50;99.90
22442;DHT22;11388;54.456;9.752;2022-12-24T02:50:23;4.40;99.90
22442;DHT22;11388;54.456;9.752;2022-12-24T02:52:49;4.40;99.90
22442;DHT22;11388;54.456;9.752;2022-12-24T03:08:04;4.60;99.90
22442;DHT22;11388;54.456;9.752;2022-12-24T03:12:41;4.50;99.90
22442;DHT22;11388;54.456;9.752;2022-12-24T03:15:12;4.50;99.90
22442;DHT22;11388;54.456;9.752;2022-12-24T03:17:41;4.50;99.90
22442;DHT22;11388;54.456;9.752;2022-12-24T03:20:10;4.50;99.90
22442;DHT22;11388;54.456;9.752;2022-12-24T03:22:38;4.50;99.90
22442;DHT22;11388;54.456;9.752;2022-12-24T03:25:04;4.50;99.90
22442;DHT22;11388;54.456;9.752;2022-12-24T03:27:30;4.60;99.90
22442;DHT22;11388;54.456;9.752;2022-12-24T03:29:57;4.50;99.90
22442;DHT22;11388;54.456;9.752;2022-12-24T03:32:31;4.50;99.90
22442;DHT22;11388;54.456;9.752;2022-12-24T03:34:57;4.50;99.90
22442;DHT22;11388;54.456;9.752;2022-12-24T03:37:23;4.60;99.90
22442;DHT22;11388;54.456;9.752;2022-12-24T03:39:49;4.60;99.90
22442;DHT22;11388;54.456;9.752;2022-12-24T03:42:15;4.70;99.90
22442;DHT22;11388;54.456;9.752;2022-12-24T03:44:41;4.70;99.90
22442;DHT22;11388;54.456;9.752;2022-12-24T03:47:06;4.70;99.90
22442;DHT22;11388;54.456;9.752;2022-12-24T03:49:32;4.70;99.90
22442;DHT22;11388;54.456;9.752;2022-12-24T03:51:58;4.70;99.90
22442;DHT22;11388;54.456;9.752;2022-12-24T03:54:24;4.70;99.90
22442;DHT22;11388;54.456;9.752;2022-12-24T03:56:49;4.70;99.90
22442;DHT22;11388;54.456;9.752;2022-12-24T03:59:15;4.80;99.90
22442;DHT22;11388;54.456;9.752;2022-12-24T04:01:41;4.80;99.90
22442;DHT22;11388;54.456;9.752;2022-12-24T04:04:06;4.80;99.90
22442;DHT22;11388;54.456;9.752;2022-12-24T04:06:32;4.80;99.90
22442;DHT22;11388;54.456;9.752;2022-12-24T04:08:58;4.90;99.90
22442;DHT22;11388;54.456;9.752;2022-12-24T04:11:26;4.90;99.90
22442;DHT22;11388;54.456;9.752;2022-12-24T04:13:52;4.90;99.90
22442;DHT22;11388;54.456;9.752;2022-12-24T04:16:17;4.80;99.90
22442;DHT22;11388;54.456;9.752;2022-12-24T04:18:43;4.80;99.90
22442;DHT22;11388;54.456;9.752;2022-12-24T04:21:10;4.80;99.90
22442;DHT22;11388;54.456;9.752;2022-12-24T04:23:37;5.00;99.90
22442;DHT22;11388;54.456;9.752;2022-12-24T04:26:04;4.80;99.90
22442;DHT22;11388;54.456;9.752;2022-12-24T04:28:31;4.90;99.90
22442;DHT22;11388;54.456;9.752;2022-12-24T04:30:58;4.90;99.90
22442;DHT22;11388;54.456;9.752;2022-12-24T04:33:24;4.90;99.90
22442;DHT22;11388;54.456;9.752;2022-12-24T04:35:50;5.00;99.90
22442;DHT22;11388;54.456;9.752;2022-12-24T04:38:15;5.00;99.90
22442;DHT22;11388;54.456;9.752;2022-12-24T04:40:42;5.00;99.90
22442;DHT22;11388;54.456;9.752;2022-12-24T04:43:10;5.00;99.90
22442;DHT22;11388;54.456;9.752;2022-12-24T04:45:35;4.90;99.90
22442;DHT22;11388;54.456;9.752;2022-12-24T04:48:01;5.00;99.90
22442;DHT22;11388;54.456;9.752;2022-12-24T04:50:27;5.00;99.90
22442;DHT22;11388;54.456;9.752;2022-12-24T04:52:52;5.00;99.90
22442;DHT22;11388;54.456;9.752;2022-12-24T04:55:18;5.00;99.90
22442;DHT22;11388;54.456;9.752;2022-12-24T04:57:44;4.90;99.90
22442;DHT22;11388;54.456;9.752;2022-12-24T05:00:10;5.00;99.90
22442;DHT22;11388;54.456;9.752;2022-12-24T05:02:36;5.00;99.90
22442;DHT22;11388;54.456;9.752;2022-12-24T05:05:02;5.00;99.90
22442;DHT22;11388;54.456;9.752;2022-12-24T05:07:28;5.00;99.90
22442;DHT22;11388;54.456;9.752;2022-12-24T05:09:53;4.90;99.90
22442;DHT22;11388;54.456;9.752;2022-12-24T05:12:19;5.00;99.90
22442;DHT22;11388;54.456;9.752;2022-12-24T05:14:44;5.00;99.90
22442;DHT22;11388;54.456;9.752;2022-12-24T05:17:10;5.00;99.90
22442;DHT22;11388;54.456;9.752;2022-12-24T05:19:36;5.10;99.90
22442;DHT22;11388;54.456;9.752;2022-12-24T05:22:02;5.00;99.90
22442;DHT22;11388;54.456;9.752;2022-12-24T05:24:46;5.00;99.90
22442;DHT22;11388;54.456;9.752;2022-12-24T05:27:30;5.10;99.90
22442;DHT22;11388;54.456;9.752;2022-12-24T05:29:56;5.10;99.90
22442;DHT22;11388;54.456;9.752;2022-12-24T05:32:21;5.00;99.90
22442;DHT22;11388;54.456;9.752;2022-12-24T05:34:47;5.10;99.90
22442;DHT22;11388;54.456;9.752;2022-12-24T05:37:13;5.10;99.90
22442;DHT22;11388;54.456;9.752;2022-12-24T05:39:38;5.00;99.90
22442;DHT22;11388;54.456;9.752;2022-12-24T05:42:04;5.00;99.90
22442;DHT22;11388;54.456;9.752;2022-12-24T05:44:30;5.10;99.90
22442;DHT22;11388;54.456;9.752;2022-12-24T05:46:55;5.00;99.90
22442;DHT22;11388;54.456;9.752;2022-12-24T05:49:21;5.00;99.90
22442;DHT22;11388;54.456;9.752;2022-12-24T05:51:47;5.10;99.90
22442;DHT22;11388;54.456;9.752;2022-12-24T05:54:13;5.20;99.90
22442;DHT22;11388;54.456;9.752;2022-12-24T05:56:38;5.20;99.90
22442;DHT22;11388;54.456;9.752;2022-12-24T05:59:04;5.10;99.90
22442;DHT22;11388;54.456;9.752;2022-12-24T06:01:30;5.10;99.90
22442;DHT22;11388;54.456;9.752;2022-12-24T06:03:56;5.10;99.90
22442;DHT22;11388;54.456;9.752;2022-12-24T06:06:24;5.10;99.90
22442;DHT22;11388;54.456;9.752;2022-12-24T06:08:52;5.00;99.90
22442;DHT22;11388;54.456;9.752;2022-12-24T06:11:20;5.00;99.90
22442;DHT22;11388;54.456;9.752;2022-12-24T06:13:46;5.00;99.90
22442;DHT22;11388;54.456;9.752;2022-12-24T06:16:15;5.00;99.90
22442;DHT22;11388;54.456;9.752;2022-12-24T06:18:41;4.90;99.90
22442;DHT22;11388;54.456;9.752;2022-12-24T06:21:08;4.90;99.90
22442;DHT22;11388;54.456;9.752;2022-12-24T06:23:36;4.90;99.90
22442;DHT22;11388;54.456;9.752;2022-12-24T06:26:03;5.00;99.90
22442;DHT22;11388;54.456;9.752;2022-12-24T06:28:31;5.00;99.90
22442;DHT22;11388;54.456;9.752;2022-12-24T06:30:56;5.00;99.90
22442;DHT22;11388;54.456;9.752;2022-12-24T06:33:23;5.00;99.90
22442;DHT22;11388;54.456;9.752;2022-12-24T06:35:49;5.00;99.90
22442;DHT22;11388;54.456;9.752;2022-12-24T06:38:15;5.00;99.90
22442;DHT22;11388;54.456;9.752;2022-12-24T06:40:42;5.10;99.90
22442;DHT22;11388;54.456;9.752;2022-12-24T06:43:09;5.10;99.90
22442;DHT22;11388;54.456;9.752;2022-12-24T06:45:34;5.10;99.90
22442;DHT22;11388;54.456;9.752;2022-12-24T06:48:00;5.10;99.90
22442;DHT22;11388;54.456;9.752;2022-12-24T06:50:26;5.00;99.90
22442;DHT22;11388;54.456;9.752;2022-12-24T06:52:52;5.10;99.90
22442;DHT22;11388;54.456;9.752;2022-12-24T06:55:18;5.00;99.90
22442;DHT22;11388;54.456;9.752;2022-12-24T06:57:44;5.00;99.90
22442;DHT22;11388;54.456;9.752;2022-12-24T07:00:10;5.00;99.90
22442;DHT22;11388;54.456;9.752;2022-12-24T07:02:43;5.00;99.90
22442;DHT22;11388;54.456;9.752;2022-12-24T07:05:10;5.00;99.90
22442;DHT22;11388;54.456;9.752;2022-12-24T07:07:38;5.10;99.90
22442;DHT22;11388;54.456;9.752;2022-12-24T07:10:05;5.00;99.90
22442;DHT22;11388;54.456;9.752;2022-12-24T07:12:31;5.10;99.90
22442;DHT22;11388;54.456;9.752;2022-12-24T07:14:56;5.10;99.90
22442;DHT22;11388;54.456;9.752;2022-12-24T07:17:22;5.10;99.90
22442;DHT22;11388;54.456;9.752;2022-12-24T07:19:48;5.10;99.90
22442;DHT22;11388;54.456;9.752;2022-12-24T07:22:14;5.10;99.90
22442;DHT22;11388;54.456;9.752;2022-12-24T07:24:39;5.10;99.90
22442;DHT22;11388;54.456;9.752;2022-12-24T07:27:05;5.10;99.90
22442;DHT22;11388;54.456;9.752;2022-12-24T07:29:31;5.10;99.90
22442;DHT22;11388;54.456;9.752;2022-12-24T07:31:56;5.10;99.90
22442;DHT22;11388;54.456;9.752;2022-12-24T07:34:22;5.00;99.90
22442;DHT22;11388;54.456;9.752;2022-12-24T07:36:48;5.00;99.90
22442;DHT22;11388;54.456;9.752;2022-12-24T07:39:19;5.10;99.90
22442;DHT22;11388;54.456;9.752;2022-12-24T07:41:47;5.10;99.90
22442;DHT22;11388;54.456;9.752;2022-12-24T07:44:17;5.10;99.90
22442;DHT22;11388;54.456;9.752;2022-12-24T07:46:43;5.00;99.90
22442;DHT22;11388;54.456;9.752;2022-12-24T07:49:09;5.10;99.90
22442;DHT22;11388;54.456;9.752;2022-12-24T07:51:35;5.00;99.90
22442;DHT22;11388;54.456;9.752;2022-12-24T07:54:01;5.00;99.90
22442;DHT22;11388;54.456;9.752;2022-12-24T07:56:29;5.00;99.90
22442;DHT22;11388;54.456;9.752;2022-12-24T07:58:55;5.00;99.90
22442;DHT22;11388;54.456;9.752;2022-12-24T08:01:20;4.90;99.90
22442;DHT22;11388;54.456;9.752;2022-12-24T08:03:46;4.90;99.90
22442;DHT22;11388;54.456;9.752;2022-12-24T08:06:12;5.00;99.90
22442;DHT22;11388;54.456;9.752;2022-12-24T08:08:38;5.00;99.90
22442;DHT22;11388;54.456;9.752;2022-12-24T08:11:05;5.10;99.90
22442;DHT22;11388;54.456;9.752;2022-12-24T08:13:31;5.00;99.90
22442;DHT22;11388;54.456;9.752;2022-12-24T08:15:57;5.00;99.90
22442;DHT22;11388;54.456;9.752;2022-12-24T08:18:24;5.10;99.90
22442;DHT22;11388;54.456;9.752;2022-12-24T08:20:50;5.10;99.90
22442;DHT22;11388;54.456;9.752;2022-12-24T08:23:16;5.00;99.90
22442;DHT22;11388;54.456;9.752;2022-12-24T08:25:44;5.10;99.90
22442;DHT22;11388;54.456;9.752;2022-12-24T08:28:10;5.10;99.90
22442;DHT22;11388;54.456;9.752;2022-12-24T08:30:36;5.00;99.90
22442;DHT22;11388;54.456;9.752;2022-12-24T08:33:02;5.10;99.90
22442;DHT22;11388;54.456;9.752;2022-12-24T08:35:27;5.20;99.90
22442;DHT22;11388;54.456;9.752;2022-12-24T08:37:53;5.20;99.90
22442;DHT22;11388;54.456;9.752;2022-12-24T08:40:19;5.30;99.90
22442;DHT22;11388;54.456;9.752;2022-12-24T08:42:44;5.20;99.90
22442;DHT22;11388;54.456;9.752;2022-12-24T08:45:11;5.20;99.90
22442;DHT22;11388;54.456;9.752;2022-12-24T08:47:37;5.10;99.90
22442;DHT22;11388;54.456;9.752;2022-12-24T08:50:07;5.10;99.90
22442;DHT22;11388;54.456;9.752;2022-12-24T08:52:33;5.10;99.90
22442;DHT22;11388;54.456;9.752;2022-12-24T08:54:59;5.20;99.90
22442;DHT22;11388;54.456;9.752;2022-12-24T08:57:24;5.10;99.90
22442;DHT22;11388;54.456;9.752;2022-12-24T08:59:50;5.10;99.90
22442;DHT22;11388;54.456;9.752;2022-12-24T09:02:16;5.20;99.90
22442;DHT22;11388;54.456;9.752;2022-12-24T09:04:42;5.30;99.90
22442;DHT22;11388;54.456;9.752;2022-12-24T09:07:08;5.40;99.90
22442;DHT22;11388;54.456;9.752;2022-12-24T09:09:34;5.30;99.90
22442;DHT22;11388;54.456;9.752;2022-12-24T09:12:00;5.30;99.90
22442;DHT22;11388;54.456;9.752;2022-12-24T09:14:28;5.30;99.90
22442;DHT22;11388;54.456;9.752;2022-12-24T09:16:53;5.20;99.90
22442;DHT22;11388;54.456;9.752;2022-12-24T09:19:21;5.30;99.90
22442;DHT22;11388;54.456;9.752;2022-12-24T09:21:47;5.30;99.90
22442;DHT22;11388;54.456;9.752;2022-12-24T09:24:13;5.30;99.90
22442;DHT22;11388;54.456;9.752;2022-12-24T09:26:40;5.30;99.90
22442;DHT22;11388;54.456;9.752;2022-12-24T09:29:06;5.30;99.90
22442;DHT22;11388;54.456;9.752;2022-12-24T09:31:32;5.30;99.90
22442;DHT22;11388;54.456;9.752;2022-12-24T09:33:57;5.40;99.90
22442;DHT22;11388;54.456;9.752;2022-12-24T09:36:26;5.40;99.90
22442;DHT22;11388;54.456;9.752;2022-12-24T09:38:52;5.30;99.90
22442;DHT22;11388;54.456;9.752;2022-12-24T09:46:54;5.50;99.90
22442;DHT22;11388;54.456;9.752;2022-12-24T09:49:33;5.60;99.90
22442;DHT22;11388;54.456;9.752;2022-12-24T09:52:06;5.40;99.90
22442;DHT22;11388;54.456;9.752;2022-12-24T09:54:57;5.40;99.90
22442;DHT22;11388;54.456;9.752;2022-12-24T09:57:31;5.50;99.90
22442;DHT22;11388;54.456;9.752;2022-12-24T09:59:59;5.40;99.90
22442;DHT22;11388;54.456;9.752;2022-12-24T10:02:24;5.50;99.90
22442;DHT22;11388;54.456;9.752;2022-12-24T10:04:50;5.50;99.90
22442;DHT22;11388;54.456;9.752;2022-12-24T10:24:28;5.60;99.90
22442;DHT22;11388;54.456;9.752;2022-12-24T10:27:05;5.60;99.90
22442;DHT22;11388;54.456;9.752;2022-12-24T10:29:35;5.60;99.90
22442;DHT22;11388;54.456;9.752;2022-12-24T10:34:40;5.50;99.90
22442;DHT22;11388;54.456;9.752;2022-12-24T10:37:15;5.40;99.90
22442;DHT22;11388;54.456;9.752;2022-12-24T10:39:41;5.60;99.90
22442;DHT22;11388;54.456;9.752;2022-12-24T10:42:08;5.60;99.90
22442;DHT22;11388;54.456;9.752;2022-12-24T10:44:35;5.50;99.90
22442;DHT22;11388;54.456;9.752;2022-12-24T10:47:02;5.60;99.90
22442;DHT22;11388;54.456;9.752;2022-12-24T10:49:49;5.60;99.90
22442;DHT22;11388;54.456;9.752;2022-12-24T10:52:20;5.50;99.90
22442;DHT22;11388;54.456;9.752;2022-12-24T10:55:07;5.50;99.90
22442;DHT22;11388;54.456;9.752;2022-12-24T10:57:33;5.50;99.90
22442;DHT22;11388;54.456;9.752;2022-12-24T11:00:00;5.50;99.90
22442;DHT22;11388;54.456;9.752;2022-12-24T11:02:37;5.50;99.90
22442;DHT22;11388;54.456;9.752;2022-12-24T11:05:06;5.60;99.90
22442;DHT22;11388;54.456;9.752;2022-12-24T11:07:33;5.50;99.90
22442;DHT22;11388;54.456;9.752;2022-12-24T11:10:01;5.60;99.90
22442;DHT22;11388;54.456;9.752;2022-12-24T11:12:34;5.50;99.90
22442;DHT22;11388;54.456;9.752;2022-12-24T11:15:18;5.50;99.90
22442;DHT22;11388;54.456;9.752;2022-12-24T11:17:56;5.50;99.90
22442;DHT22;11388;54.456;9.752;2022-12-24T11:20:29;5.40;99.90
22442;DHT22;11388;54.456;9.752;2022-12-24T11:22:55;5.40;99.90
22442;DHT22;11388;54.456;9.752;2022-12-24T11:25:25;5.40;99.90
22442;DHT22;11388;54.456;9.752;2022-12-24T11:28:09;5.40;99.90
22442;DHT22;11388;54.456;9.752;2022-12-24T11:30:35;5.40;99.90
22442;DHT22;11388;54.456;9.752;2022-12-24T11:35:31;5.40;99.90
22442;DHT22;11388;54.456;9.752;2022-12-24T11:40:36;5.50;99.90
22442;DHT22;11388;54.456;9.752;2022-12-24T11:43:04;5.60;99.90
22442;DHT22;11388;54.456;9.752;2022-12-24T11:45:31;5.60;99.90
22442;DHT22;11388;54.456;9.752;2022-12-24T11:47:59;5.70;99.90
22442;DHT22;11388;54.456;9.752;2022-12-24T12:01:08;5.60;99.90
22442;DHT22;11388;54.456;9.752;2022-12-24T12:03:52;5.60;99.90
22442;DHT22;11388;54.456;9.752;2022-12-24T12:09:40;5.70;99.90
22442;DHT22;11388;54.456;9.752;2022-12-24T12:11:44;5.60;99.90
22442;DHT22;11388;54.456;9.752;2022-12-24T12:14:23;5.70;99.90
22442;DHT22;11388;54.456;9.752;2022-12-24T12:17:25;5.60;99.90
22442;DHT22;11388;54.456;9.752;2022-12-24T12:20:13;5.70;99.90
22442;DHT22;11388;54.456;9.752;2022-12-24T12:25:58;5.70;99.90
22442;DHT22;11388;54.456;9.752;2022-12-24T12:31:31;5.70;99.90
22442;DHT22;11388;54.456;9.752;2022-12-24T12:37:38;5.80;99.90
22442;DHT22;11388;54.456;9.752;2022-12-24T12:40:15;5.70;99.90
22442;DHT22;11388;54.456;9.752;2022-12-24T12:43:00;5.80;99.90
22442;DHT22;11388;54.456;9.752;2022-12-24T12:45:38;5.80;99.90
22442;DHT22;11388;54.456;9.752;2022-12-24T12:48:20;5.90;99.90
22442;DHT22;11388;54.456;9.752;2022-12-24T12:51:21;5.80;99.90
22442;DHT22;11388;54.456;9.752;2022-12-24T13:12:42;5.80;99.90
22442;DHT22;11388;54.456;9.752;2022-12-24T13:17:52;6.00;99.90
22442;DHT22;11388;54.456;9.752;2022-12-24T13:20:32;6.00;99.90
22442;DHT22;11388;54.456;9.752;2022-12-24T13:23:12;5.80;99.90
22442;DHT22;11388;54.456;9.752;2022-12-24T13:25:44;5.80;99.90
22442;DHT22;11388;54.456;9.752;2022-12-24T13:30:46;5.80;99.90
22442;DHT22;11388;54.456;9.752;2022-12-24T13:33:13;5.80;99.90
22442;DHT22;11388;54.456;9.752;2022-12-24T13:38:31;5.80;99.90
22442;DHT22;11388;54.456;9.752;2022-12-24T13:46:58;5.70;99.90
22442;DHT22;11388;54.456;9.752;2022-12-24T13:49:42;5.80;99.90
22442;DHT22;11388;54.456;9.752;2022-12-24T13:54:46;5.80;99.90
22442;DHT22;11388;54.456;9.752;2022-12-24T13:57:40;5.80;99.90
22442;DHT22;11388;54.456;9.752;2022-12-24T14:02:57;5.80;99.90
22442;DHT22;11388;54.456;9.752;2022-12-24T14:05:37;5.80;99.90
22442;DHT22;11388;54.456;9.752;2022-12-24T14:08:10;5.90;99.90
22442;DHT22;11388;54.456;9.752;2022-12-24T14:16:08;5.80;99.90
22442;DHT22;11388;54.456;9.752;2022-12-24T14:18:41;5.80;99.90
22442;DHT22;11388;54.456;9.752;2022-12-24T14:21:21;5.80;99.90
22442;DHT22;11388;54.456;9.752;2022-12-24T14:24:05;5.80;99.90
22442;DHT22;11388;54.456;9.752;2022-12-24T14:26:45;5.90;99.90
22442;DHT22;11388;54.456;9.752;2022-12-24T14:31:56;6.00;99.90
22442;DHT22;11388;54.456;9.752;2022-12-24T14:34:22;6.00;99.90
22442;DHT22;11388;54.456;9.752;2022-12-24T14:36:50;6.00;99.90
22442;DHT22;11388;54.456;9.752;2022-12-24T14:39:33;6.00;99.90
22442;DHT22;11388;54.456;9.752;2022-12-24T14:47:46;6.20;99.90
22442;DHT22;11388;54.456;9.752;2022-12-24T14:50:47;6.20;99.90
22442;DHT22;11388;54.456;9.752;2022-12-24T14:56:16;6.20;99.90
22442;DHT22;11388;54.456;9.752;2022-12-24T14:58:44;6.10;99.90
22442;DHT22;11388;54.456;9.752;2022-12-24T15:01:42;6.10;99.90
22442;DHT22;11388;54.456;9.752;2022-12-24T15:06:42;6.00;99.90
22442;DHT22;11388;54.456;9.752;2022-12-24T15:09:27;6.00;99.90
22442;DHT22;11388;54.456;9.752;2022-12-24T15:11:58;6.00;99.90
22442;DHT22;11388;54.456;9.752;2022-12-24T15:14:26;6.00;99.90
22442;DHT22;11388;54.456;9.752;2022-12-24T15:17:03;6.10;99.90
22442;DHT22;11388;54.456;9.752;2022-12-24T15:21:59;6.10;99.90
22442;DHT22;11388;54.456;9.752;2022-12-24T15:24:34;6.10;99.90
22442;DHT22;11388;54.456;9.752;2022-12-24T15:27:16;6.10;99.90
22442;DHT22;11388;54.456;9.752;2022-12-24T15:29:44;6.10;99.90
22442;DHT22;11388;54.456;9.752;2022-12-24T15:32:12;6.00;99.90
22442;DHT22;11388;54.456;9.752;2022-12-24T15:34:44;6.00;99.90
22442;DHT22;11388;54.456;9.752;2022-12-24T15:37:15;6.00;99.90
22442;DHT22;11388;54.456;9.752;2022-12-24T15:39:42;6.00;99.90
22442;DHT22;11388;54.456;9.752;2022-12-24T15:42:09;6.00;99.90
22442;DHT22;11388;54.456;9.752;2022-12-24T15:44:41;6.10;99.90
22442;DHT22;11388;54.456;9.752;2022-12-24T15:47:15;6.10;99.90
22442;DHT22;11388;54.456;9.752;2022-12-24T15:49:43;6.10;99.90
22442;DHT22;11388;54.456;9.752;2022-12-24T15:52:13;6.00;99.90
22442;DHT22;11388;54.456;9.752;2022-12-24T15:54:44;6.00;99.90
22442;DHT22;11388;54.456;9.752;2022-12-24T15:57:30;6.10;99.90
22442;DHT22;11388;54.456;9.752;2022-12-24T15:59:58;6.10;99.90
22442;DHT22;11388;54.456;9.752;2022-12-24T16:02:39;6.10;99.90
22442;DHT22;11388;54.456;9.752;2022-12-24T16:10:45;6.20;99.90
22442;DHT22;11388;54.456;9.752;2022-12-24T16:13:24;6.10;99.90
22442;DHT22;11388;54.456;9.752;2022-12-24T16:16:13;6.10;99.90
22442;DHT22;11388;54.456;9.752;2022-12-24T16:21:08;6.20;99.90
22442;DHT22;11388;54.456;9.752;2022-12-24T16:23:48;6.20;99.90
22442;DHT22;11388;54.456;9.752;2022-12-24T16:26:15;6.20;99.90
22442;DHT22;11388;54.456;9.752;2022-12-24T16:28:41;6.20;99.90
22442;DHT22;11388;54.456;9.752;2022-12-24T16:31:06;6.20;99.90
22442;DHT22;11388;54.456;9.752;2022-12-24T16:33:49;6.10;99.90
22442;DHT22;11388;54.456;9.752;2022-12-24T16:36:16;6.10;99.90
22442;DHT22;11388;54.456;9.752;2022-12-24T16:38:42;6.10;99.90
22442;DHT22;11388;54.456;9.752;2022-12-24T16:41:39;6.10;99.90
22442;DHT22;11388;54.456;9.752;2022-12-24T16:44:24;6.00;99.90
22442;DHT22;11388;54.456;9.752;2022-12-24T16:46:51;5.90;99.90
22442;DHT22;11388;54.456;9.752;2022-12-24T16:49:19;5.90;99.90
22442;DHT22;11388;54.456;9.752;2022-12-24T16:51:45;5.90;99.90
22442;DHT22;11388;54.456;9.752;2022-12-24T16:54:12;6.00;99.90
22442;DHT22;11388;54.456;9.752;2022-12-24T16:56:41;6.00;99.90
22442;DHT22;11388;54.456;9.752;2022-12-24T16:59:19;6.00;99.90
22442;DHT22;11388;54.456;9.752;2022-12-24T17:01:46;5.90;99.90
22442;DHT22;11388;54.456;9.752;2022-12-24T17:04:11;5.90;99.90
22442;DHT22;11388;54.456;9.752;2022-12-24T17:06:37;5.90;99.90
22442;DHT22;11388;54.456;9.752;2022-12-24T17:09:04;6.00;99.90
22442;DHT22;11388;54.456;9.752;2022-12-24T17:11:30;6.00;99.90
22442;DHT22;11388;54.456;9.752;2022-12-24T17:13:55;6.10;99.90
22442;DHT22;11388;54.456;9.752;2022-12-24T17:16:21;6.10;99.90
22442;DHT22;11388;54.456;9.752;2022-12-24T17:18:48;6.20;99.90
22442;DHT22;11388;54.456;9.752;2022-12-24T17:21:16;6.10;99.90
22442;DHT22;11388;54.456;9.752;2022-12-24T17:26:58;6.10;99.90
22442;DHT22;11388;54.456;9.752;2022-12-24T17:29:24;6.30;99.90
22442;DHT22;11388;54.456;9.752;2022-12-24T17:31:54;6.40;99.90
22442;DHT22;11388;54.456;9.752;2022-12-24T17:34:20;6.50;99.90
22442;DHT22;11388;54.456;9.752;2022-12-24T17:36:46;6.50;99.90
22442;DHT22;11388;54.456;9.752;2022-12-24T17:39:12;6.50;99.90
22442;DHT22;11388;54.456;9.752;2022-12-24T17:41:37;6.40;99.90
22442;DHT22;11388;54.456;9.752;2022-12-24T17:44:03;6.40;99.90
22442;DHT22;11388;54.456;9.752;2022-12-24T17:46:29;6.30;99.90
22442;DHT22;11388;54.456;9.752;2022-12-24T17:48:55;6.30;99.90
22442;DHT22;11388;54.456;9.752;2022-12-24T17:51:22;6.20;99.90
22442;DHT22;11388;54.456;9.752;2022-12-24T17:54:03;6.20;99.90
22442;DHT22;11388;54.456;9.752;2022-12-24T17:56:29;6.30;99.90
22442;DHT22;11388;54.456;9.752;2022-12-24T17:58:57;6.30;99.90
22442;DHT22;11388;54.456;9.752;2022-12-24T18:01:24;6.40;99.90
22442;DHT22;11388;54.456;9.752;2022-12-24T18:07:12;6.30;99.90
22442;DHT22;11388;54.456;9.752;2022-12-24T18:09:38;6.60;99.90
22442;DHT22;11388;54.456;9.752;2022-12-24T18:12:04;6.50;99.90
22442;DHT22;11388;54.456;9.752;2022-12-24T18:14:30;6.50;99.90
22442;DHT22;11388;54.456;9.752;2022-12-24T18:16:56;6.50;99.90
22442;DHT22;11388;54.456;9.752;2022-12-24T18:19:21;6.50;99.90
22442;DHT22;11388;54.456;9.752;2022-12-24T18:21:49;6.60;99.90
22442;DHT22;11388;54.456;9.752;2022-12-24T18:24:15;6.50;99.90
22442;DHT22;11388;54.456;9.752;2022-12-24T18:26:42;6.40;99.90
22442;DHT22;11388;54.456;9.752;2022-12-24T18:29:08;6.40;99.90
22442;DHT22;11388;54.456;9.752;2022-12-24T18:31:35;6.60;99.90
22442;DHT22;11388;54.456;9.752;2022-12-24T18:34:03;6.60;99.90
22442;DHT22;11388;54.456;9.752;2022-12-24T18:36:29;6.60;99.90
22442;DHT22;11388;54.456;9.752;2022-12-24T18:38:55;6.70;99.90
22442;DHT22;11388;54.456;9.752;2022-12-24T18:41:24;6.80;99.90
22442;DHT22;11388;54.456;9.752;2022-12-24T18:43:50;6.70;99.90
22442;DHT22;11388;54.456;9.752;2022-12-24T18:46:19;6.70;99.90
22442;DHT22;11388;54.456;9.752;2022-12-24T18:48:45;6.70;99.90